sensor_id;sensor_type;location;lat;lon;timestamp;P1;durP1;ratioP1;P2;durP2;ratioP2
73454;SDS011;61690;51.824;6.306;2023-10-31T00:00:32;10.13;;;5.10;;
73454;SDS011;61690;51.824;6.306;2023-10-31T00:02:58;8.90;;;4.10;;
73454;SDS011;61690;51.824;6.306;2023-10-31T00:05:23;8.77;;;4.20;;
73454;SDS011;61690;51.824;6.306;2023-10-31T00:07:48;9.57;;;4.50;;
73454;SDS011;61690;51.824;6.306;2023-10-31T00:10:13;8.80;;;4.50;;
73454;SDS011;61690;51.824;6.306;2023-10-31T00:12:39;8.30;;;4.20;;
73454;SDS011;61690;51.824;6.306;2023-10-31T00:15:05;9.87;;;4.27;;
73454;SDS011;61690;51.824;6.306;2023-10-31T00:17:30;8.32;;;4.43;;
73454;SDS011;61690;51.824;6.306;2023-10-31T00:19:55;8.47;;;4.70;;
73454;SDS011;61690;51.824;6.306;2023-10-31T00:22:21;10.13;;;4.70;;
73454;SDS011;61690;51.824;6.306;2023-10-31T00:24:47;8.82;;;4.65;;
73454;SDS011;61690;51.824;6.306;2023-10-31T00:27:12;9.13;;;4.57;;
73454;SDS011;61690;51.824;6.306;2023-10-31T00:29:37;8.77;;;4.43;;
73454;SDS011;61690;51.824;6.306;2023-10-31T00:32:03;9.40;;;5.17;;
73454;SDS011;61690;51.824;6.306;2023-10-31T00:34:28;9.77;;;4.50;;
73454;SDS011;61690;51.824;6.306;2023-10-31T00:36:54;8.70;;;4.40;;
73454;SDS011;61690;51.824;6.306;2023-10-31T00:39:19;8.87;;;4.50;;
73454;SDS011;61690;51.824;6.306;2023-10-31T00:41:44;10.17;;;4.87;;
73454;SDS011;61690;51.824;6.306;2023-10-31T00:44:11;9.57;;;4.78;;
73454;SDS011;61690;51.824;6.306;2023-10-31T00:46:36;10.17;;;4.70;;
73454;SDS011;61690;51.824;6.306;2023-10-31T00:49:02;8.90;;;4.90;;
73454;SDS011;61690;51.824;6.306;2023-10-31T00:51:28;9.35;;;4.70;;
73454;SDS011;61690;51.824;6.306;2023-10-31T00:53:53;10.27;;;4.87;;
73454;SDS011;61690;51.824;6.306;2023-10-31T00:56:18;10.47;;;4.80;;
73454;SDS011;61690;51.824;6.306;2023-10-31T00:58:44;10.25;;;4.93;;
73454;SDS011;61690;51.824;6.306;2023-10-31T01:01:09;9.30;;;4.93;;
73454;SDS011;61690;51.824;6.306;2023-10-31T01:03:34;9.53;;;4.40;;
73454;SDS011;61690;51.824;6.306;2023-10-31T01:06:00;9.13;;;4.70;;
73454;SDS011;61690;51.824;6.306;2023-10-31T01:08:25;9.00;;;4.73;;
73454;SDS011;61690;51.824;6.306;2023-10-31T01:10:50;9.40;;;4.20;;
73454;SDS011;61690;51.824;6.306;2023-10-31T01:13:16;8.27;;;4.13;;
73454;SDS011;61690;51.824;6.306;2023-10-31T01:15:41;10.27;;;5.03;;
73454;SDS011;61690;51.824;6.306;2023-10-31T01:18:06;10.18;;;4.63;;
73454;SDS011;61690;51.824;6.306;2023-10-31T01:20:32;7.97;;;4.23;;
73454;SDS011;61690;51.824;6.306;2023-10-31T01:22:57;8.27;;;4.50;;
73454;SDS011;61690;51.824;6.306;2023-10-31T01:25:22;9.93;;;4.30;;
73454;SDS011;61690;51.824;6.306;2023-10-31T01:27:47;9.40;;;4.80;;
73454;SDS011;61690;51.824;6.306;2023-10-31T01:30:13;8.47;;;4.60;;
73454;SDS011;61690;51.824;6.306;2023-10-31T01:32:38;8.85;;;4.60;;
73454;SDS011;61690;51.824;6.306;2023-10-31T01:35:04;8.73;;;4.30;;
73454;SDS011;61690;51.824;6.306;2023-10-31T01:37:29;8.80;;;4.63;;
73454;SDS011;61690;51.824;6.306;2023-10-31T01:39:55;9.00;;;4.55;;
73454;SDS011;61690;51.824;6.306;2023-10-31T01:42:20;9.53;;;4.37;;
73454;SDS011;61690;51.824;6.306;2023-10-31T01:44:46;8.83;;;4.20;;
73454;SDS011;61690;51.824;6.306;2023-10-31T01:47:11;9.77;;;4.60;;
73454;SDS011;61690;51.824;6.306;2023-10-31T01:49:36;9.77;;;4.50;;
73454;SDS011;61690;51.824;6.306;2023-10-31T01:52:05;9.30;;;4.95;;
73454;SDS011;61690;51.824;6.306;2023-10-31T01:54:34;9.30;;;4.72;;
73454;SDS011;61690;51.824;6.306;2023-10-31T01:57:00;9.57;;;4.72;;
73454;SDS011;61690;51.824;6.306;2023-10-31T01:59:27;8.83;;;4.47;;
73454;SDS011;61690;51.824;6.306;2023-10-31T02:01:52;8.80;;;4.50;;
73454;SDS011;61690;51.824;6.306;2023-10-31T02:04:19;8.60;;;4.18;;
73454;SDS011;61690;51.824;6.306;2023-10-31T02:06:45;8.90;;;4.35;;
73454;SDS011;61690;51.824;6.306;2023-10-31T02:09:10;8.80;;;4.50;;
73454;SDS011;61690;51.824;6.306;2023-10-31T02:11:35;7.83;;;4.30;;
73454;SDS011;61690;51.824;6.306;2023-10-31T02:14:01;9.10;;;4.40;;
73454;SDS011;61690;51.824;6.306;2023-10-31T02:16:26;8.75;;;4.43;;
73454;SDS011;61690;51.824;6.306;2023-10-31T02:18:52;8.93;;;4.47;;
73454;SDS011;61690;51.824;6.306;2023-10-31T02:21:18;8.53;;;4.30;;
73454;SDS011;61690;51.824;6.306;2023-10-31T02:24:01;9.18;;;4.72;;
73454;SDS011;61690;51.824;6.306;2023-10-31T02:26:28;9.15;;;4.35;;
73454;SDS011;61690;51.824;6.306;2023-10-31T02:28:55;9.07;;;4.43;;
73454;SDS011;61690;51.824;6.306;2023-10-31T02:31:20;8.97;;;4.07;;
73454;SDS011;61690;51.824;6.306;2023-10-31T02:33:46;8.23;;;4.00;;
73454;SDS011;61690;51.824;6.306;2023-10-31T02:36:11;9.73;;;4.47;;
73454;SDS011;61690;51.824;6.306;2023-10-31T02:38:36;7.77;;;4.17;;
73454;SDS011;61690;51.824;6.306;2023-10-31T02:41:01;7.83;;;4.00;;
73454;SDS011;61690;51.824;6.306;2023-10-31T02:43:27;8.90;;;4.33;;
73454;SDS011;61690;51.824;6.306;2023-10-31T02:45:52;7.97;;;4.30;;
73454;SDS011;61690;51.824;6.306;2023-10-31T02:48:17;8.53;;;4.10;;
73454;SDS011;61690;51.824;6.306;2023-10-31T02:50:43;8.20;;;4.10;;
73454;SDS011;61690;51.824;6.306;2023-10-31T02:53:08;8.30;;;4.17;;
73454;SDS011;61690;51.824;6.306;2023-10-31T02:55:33;8.37;;;4.30;;
73454;SDS011;61690;51.824;6.306;2023-10-31T02:57:58;8.70;;;4.00;;
73454;SDS011;61690;51.824;6.306;2023-10-31T03:00:24;8.13;;;3.93;;
73454;SDS011;61690;51.824;6.306;2023-10-31T03:02:50;7.93;;;4.10;;
73454;SDS011;61690;51.824;6.306;2023-10-31T03:05:15;8.20;;;3.93;;
73454;SDS011;61690;51.824;6.306;2023-10-31T03:07:41;7.47;;;3.93;;
73454;SDS011;61690;51.824;6.306;2023-10-31T03:10:06;8.17;;;4.20;;
73454;SDS011;61690;51.824;6.306;2023-10-31T03:12:32;8.77;;;4.33;;
73454;SDS011;61690;51.824;6.306;2023-10-31T03:14:57;8.87;;;4.47;;
73454;SDS011;61690;51.824;6.306;2023-10-31T03:17:22;7.93;;;4.30;;
73454;SDS011;61690;51.824;6.306;2023-10-31T03:19:50;8.95;;;3.80;;
73454;SDS011;61690;51.824;6.306;2023-10-31T03:22:15;8.30;;;3.90;;
73454;SDS011;61690;51.824;6.306;2023-10-31T03:24:41;8.30;;;4.20;;
73454;SDS011;61690;51.824;6.306;2023-10-31T03:27:06;8.25;;;3.92;;
73454;SDS011;61690;51.824;6.306;2023-10-31T03:29:31;9.37;;;4.50;;
73454;SDS011;61690;51.824;6.306;2023-10-31T03:31:56;8.10;;;3.80;;
73454;SDS011;61690;51.824;6.306;2023-10-31T03:34:22;9.33;;;4.03;;
73454;SDS011;61690;51.824;6.306;2023-10-31T03:36:47;7.83;;;3.87;;
73454;SDS011;61690;51.824;6.306;2023-10-31T03:39:12;7.50;;;3.80;;
73454;SDS011;61690;51.824;6.306;2023-10-31T03:41:38;8.60;;;4.37;;
73454;SDS011;61690;51.824;6.306;2023-10-31T03:44:03;8.53;;;3.67;;
73454;SDS011;61690;51.824;6.306;2023-10-31T03:46:29;8.13;;;3.70;;
73454;SDS011;61690;51.824;6.306;2023-10-31T03:48:54;8.13;;;4.00;;
73454;SDS011;61690;51.824;6.306;2023-10-31T03:51:19;8.37;;;3.97;;
73454;SDS011;61690;51.824;6.306;2023-10-31T03:53:44;8.70;;;3.93;;
73454;SDS011;61690;51.824;6.306;2023-10-31T03:56:10;8.47;;;4.33;;
73454;SDS011;61690;51.824;6.306;2023-10-31T03:58:35;8.07;;;4.13;;
73454;SDS011;61690;51.824;6.306;2023-10-31T04:01:00;7.93;;;3.93;;
73454;SDS011;61690;51.824;6.306;2023-10-31T04:03:26;7.05;;;3.90;;
73454;SDS011;61690;51.824;6.306;2023-10-31T04:05:51;7.83;;;3.93;;
73454;SDS011;61690;51.824;6.306;2023-10-31T04:08:16;8.57;;;4.40;;
73454;SDS011;61690;51.824;6.306;2023-10-31T04:10:41;8.07;;;3.80;;
73454;SDS011;61690;51.824;6.306;2023-10-31T04:13:07;7.57;;;3.93;;
73454;SDS011;61690;51.824;6.306;2023-10-31T04:15:32;8.53;;;4.00;;
73454;SDS011;61690;51.824;6.306;2023-10-31T04:17:59;8.05;;;4.00;;
73454;SDS011;61690;51.824;6.306;2023-10-31T04:20:25;7.83;;;3.90;;
73454;SDS011;61690;51.824;6.306;2023-10-31T04:22:50;8.27;;;4.30;;
73454;SDS011;61690;51.824;6.306;2023-10-31T04:25:15;7.70;;;3.70;;
73454;SDS011;61690;51.824;6.306;2023-10-31T04:27:40;8.13;;;4.10;;
73454;SDS011;61690;51.824;6.306;2023-10-31T04:30:06;7.95;;;4.05;;
73454;SDS011;61690;51.824;6.306;2023-10-31T04:32:32;7.83;;;4.10;;
73454;SDS011;61690;51.824;6.306;2023-10-31T04:34:57;7.87;;;3.87;;
73454;SDS011;61690;51.824;6.306;2023-10-31T04:37:22;7.10;;;3.97;;
73454;SDS011;61690;51.824;6.306;2023-10-31T04:39:48;7.97;;;4.23;;
73454;SDS011;61690;51.824;6.306;2023-10-31T04:42:13;7.87;;;4.10;;
73454;SDS011;61690;51.824;6.306;2023-10-31T04:44:38;8.47;;;3.90;;
73454;SDS011;61690;51.824;6.306;2023-10-31T04:47:03;7.70;;;3.77;;
73454;SDS011;61690;51.824;6.306;2023-10-31T04:49:29;7.67;;;3.97;;
73454;SDS011;61690;51.824;6.306;2023-10-31T04:51:54;8.47;;;3.83;;
73454;SDS011;61690;51.824;6.306;2023-10-31T04:54:19;8.07;;;3.67;;
73454;SDS011;61690;51.824;6.306;2023-10-31T04:56:44;8.73;;;4.10;;
73454;SDS011;61690;51.824;6.306;2023-10-31T04:59:12;7.32;;;3.78;;
73454;SDS011;61690;51.824;6.306;2023-10-31T05:01:37;7.80;;;3.83;;
73454;SDS011;61690;51.824;6.306;2023-10-31T05:04:02;7.73;;;4.03;;
73454;SDS011;61690;51.824;6.306;2023-10-31T05:06:28;8.35;;;3.90;;
73454;SDS011;61690;51.824;6.306;2023-10-31T05:08:53;7.40;;;4.10;;
73454;SDS011;61690;51.824;6.306;2023-10-31T05:11:18;7.90;;;3.67;;
73454;SDS011;61690;51.824;6.306;2023-10-31T05:13:44;7.80;;;4.10;;
73454;SDS011;61690;51.824;6.306;2023-10-31T05:16:10;7.60;;;4.00;;
73454;SDS011;61690;51.824;6.306;2023-10-31T05:18:36;7.30;;;3.70;;
73454;SDS011;61690;51.824;6.306;2023-10-31T05:21:02;6.93;;;3.73;;
73454;SDS011;61690;51.824;6.306;2023-10-31T05:23:28;7.88;;;3.80;;
73454;SDS011;61690;51.824;6.306;2023-10-31T05:25:54;6.93;;;3.60;;
73454;SDS011;61690;51.824;6.306;2023-10-31T05:28:20;7.55;;;3.22;;
73454;SDS011;61690;51.824;6.306;2023-10-31T05:30:45;10.37;;;4.03;;
73454;SDS011;61690;51.824;6.306;2023-10-31T05:33:11;8.07;;;3.53;;
73454;SDS011;61690;51.824;6.306;2023-10-31T05:35:36;7.83;;;3.57;;
73454;SDS011;61690;51.824;6.306;2023-10-31T05:38:01;8.07;;;3.60;;
73454;SDS011;61690;51.824;6.306;2023-10-31T05:40:27;7.17;;;3.30;;
73454;SDS011;61690;51.824;6.306;2023-10-31T05:42:54;8.07;;;3.55;;
73454;SDS011;61690;51.824;6.306;2023-10-31T05:45:19;7.77;;;3.40;;
73454;SDS011;61690;51.824;6.306;2023-10-31T05:47:45;7.80;;;3.13;;
73454;SDS011;61690;51.824;6.306;2023-10-31T05:50:10;8.00;;;3.00;;
73454;SDS011;61690;51.824;6.306;2023-10-31T05:52:35;9.40;;;3.55;;
73454;SDS011;61690;51.824;6.306;2023-10-31T05:55:01;7.53;;;3.63;;
73454;SDS011;61690;51.824;6.306;2023-10-31T05:57:27;7.03;;;3.47;;
73454;SDS011;61690;51.824;6.306;2023-10-31T05:59:52;8.40;;;4.50;;
73454;SDS011;61690;51.824;6.306;2023-10-31T06:02:17;9.97;;;4.80;;
73454;SDS011;61690;51.824;6.306;2023-10-31T06:04:43;9.07;;;5.20;;
73454;SDS011;61690;51.824;6.306;2023-10-31T06:07:10;8.25;;;4.45;;
73454;SDS011;61690;51.824;6.306;2023-10-31T06:09:35;7.40;;;3.43;;
73454;SDS011;61690;51.824;6.306;2023-10-31T06:12:01;7.60;;;3.47;;
73454;SDS011;61690;51.824;6.306;2023-10-31T06:14:26;8.13;;;3.60;;
73454;SDS011;61690;51.824;6.306;2023-10-31T06:16:51;6.73;;;3.10;;
73454;SDS011;61690;51.824;6.306;2023-10-31T06:19:17;6.70;;;3.20;;
73454;SDS011;61690;51.824;6.306;2023-10-31T06:21:43;8.32;;;2.85;;
73454;SDS011;61690;51.824;6.306;2023-10-31T06:24:08;6.77;;;2.40;;
73454;SDS011;61690;51.824;6.306;2023-10-31T06:26:34;6.17;;;2.33;;
73454;SDS011;61690;51.824;6.306;2023-10-31T06:28:59;5.80;;;2.70;;
73454;SDS011;61690;51.824;6.306;2023-10-31T06:31:24;5.87;;;2.40;;
73454;SDS011;61690;51.824;6.306;2023-10-31T06:33:50;6.27;;;2.60;;
73454;SDS011;61690;51.824;6.306;2023-10-31T06:36:15;5.43;;;1.90;;
73454;SDS011;61690;51.824;6.306;2023-10-31T06:38:40;6.97;;;2.53;;
73454;SDS011;61690;51.824;6.306;2023-10-31T06:41:05;6.27;;;2.30;;
73454;SDS011;61690;51.824;6.306;2023-10-31T06:43:31;5.23;;;2.20;;
73454;SDS011;61690;51.824;6.306;2023-10-31T06:45:56;8.10;;;2.00;;
73454;SDS011;61690;51.824;6.306;2023-10-31T06:48:25;5.67;;;2.20;;
73454;SDS011;61690;51.824;6.306;2023-10-31T06:50:50;6.28;;;2.13;;
73454;SDS011;61690;51.824;6.306;2023-10-31T06:53:16;5.70;;;2.40;;
73454;SDS011;61690;51.824;6.306;2023-10-31T06:55:41;5.87;;;2.13;;
73454;SDS011;61690;51.824;6.306;2023-10-31T06:58:06;5.50;;;1.90;;
73454;SDS011;61690;51.824;6.306;2023-10-31T07:00:31;6.00;;;2.47;;
73454;SDS011;61690;51.824;6.306;2023-10-31T07:02:57;6.17;;;2.20;;
73454;SDS011;61690;51.824;6.306;2023-10-31T07:05:23;6.65;;;2.17;;
73454;SDS011;61690;51.824;6.306;2023-10-31T07:07:49;5.30;;;2.10;;
73454;SDS011;61690;51.824;6.306;2023-10-31T07:10:14;4.97;;;2.10;;
73454;SDS011;61690;51.824;6.306;2023-10-31T07:12:40;5.10;;;2.20;;
73454;SDS011;61690;51.824;6.306;2023-10-31T07:15:05;4.83;;;2.03;;
73454;SDS011;61690;51.824;6.306;2023-10-31T07:17:31;6.22;;;2.22;;
73454;SDS011;61690;51.824;6.306;2023-10-31T07:19:56;5.60;;;2.10;;
73454;SDS011;61690;51.824;6.306;2023-10-31T07:22:22;4.50;;;2.00;;
73454;SDS011;61690;51.824;6.306;2023-10-31T07:24:49;5.70;;;2.10;;
73454;SDS011;61690;51.824;6.306;2023-10-31T07:27:15;6.03;;;2.50;;
73454;SDS011;61690;51.824;6.306;2023-10-31T07:29:40;5.10;;;2.30;;
73454;SDS011;61690;51.824;6.306;2023-10-31T07:32:06;6.93;;;2.65;;
73454;SDS011;61690;51.824;6.306;2023-10-31T07:34:35;5.75;;;2.40;;
73454;SDS011;61690;51.824;6.306;2023-10-31T07:37:00;5.00;;;2.07;;
73454;SDS011;61690;51.824;6.306;2023-10-31T07:39:26;5.03;;;2.13;;
73454;SDS011;61690;51.824;6.306;2023-10-31T07:41:52;7.90;;;2.15;;
73454;SDS011;61690;51.824;6.306;2023-10-31T07:44:17;5.10;;;2.30;;
73454;SDS011;61690;51.824;6.306;2023-10-31T07:46:42;4.70;;;2.10;;
73454;SDS011;61690;51.824;6.306;2023-10-31T07:49:07;4.90;;;2.10;;
73454;SDS011;61690;51.824;6.306;2023-10-31T07:51:33;5.10;;;1.90;;
73454;SDS011;61690;51.824;6.306;2023-10-31T07:53:59;5.57;;;2.20;;
73454;SDS011;61690;51.824;6.306;2023-10-31T07:56:24;5.07;;;1.90;;
73454;SDS011;61690;51.824;6.306;2023-10-31T07:58:53;5.20;;;2.08;;
73454;SDS011;61690;51.824;6.306;2023-10-31T08:01:19;6.03;;;2.20;;
73454;SDS011;61690;51.824;6.306;2023-10-31T08:03:48;5.60;;;2.00;;
73454;SDS011;61690;51.824;6.306;2023-10-31T08:06:13;4.93;;;2.10;;
73454;SDS011;61690;51.824;6.306;2023-10-31T08:08:39;5.63;;;2.20;;
73454;SDS011;61690;51.824;6.306;2023-10-31T08:11:07;5.57;;;2.00;;
73454;SDS011;61690;51.824;6.306;2023-10-31T08:13:33;5.30;;;2.10;;
73454;SDS011;61690;51.824;6.306;2023-10-31T08:15:58;6.00;;;2.10;;
73454;SDS011;61690;51.824;6.306;2023-10-31T08:18:23;6.13;;;2.43;;
73454;SDS011;61690;51.824;6.306;2023-10-31T08:20:49;5.70;;;2.40;;
73454;SDS011;61690;51.824;6.306;2023-10-31T08:23:16;6.03;;;2.53;;
73454;SDS011;61690;51.824;6.306;2023-10-31T08:25:42;6.07;;;2.40;;
73454;SDS011;61690;51.824;6.306;2023-10-31T08:28:07;5.37;;;2.10;;
73454;SDS011;61690;51.824;6.306;2023-10-31T08:30:33;6.30;;;2.70;;
73454;SDS011;61690;51.824;6.306;2023-10-31T08:32:58;4.80;;;2.25;;
73454;SDS011;61690;51.824;6.306;2023-10-31T08:35:24;5.67;;;2.40;;
73454;SDS011;61690;51.824;6.306;2023-10-31T08:37:49;5.57;;;2.27;;
73454;SDS011;61690;51.824;6.306;2023-10-31T08:40:14;6.13;;;2.20;;
73454;SDS011;61690;51.824;6.306;2023-10-31T08:42:40;5.38;;;2.25;;
73454;SDS011;61690;51.824;6.306;2023-10-31T08:45:06;5.50;;;2.57;;
73454;SDS011;61690;51.824;6.306;2023-10-31T08:47:32;4.85;;;2.38;;
73454;SDS011;61690;51.824;6.306;2023-10-31T08:49:57;5.00;;;2.20;;
73454;SDS011;61690;51.824;6.306;2023-10-31T08:52:23;4.83;;;1.97;;
73454;SDS011;61690;51.824;6.306;2023-10-31T08:54:48;5.67;;;2.60;;
73454;SDS011;61690;51.824;6.306;2023-10-31T08:57:13;5.17;;;2.60;;
73454;SDS011;61690;51.824;6.306;2023-10-31T08:59:39;5.57;;;2.23;;
73454;SDS011;61690;51.824;6.306;2023-10-31T09:02:05;5.60;;;2.30;;
73454;SDS011;61690;51.824;6.306;2023-10-31T09:04:31;5.73;;;2.30;;
73454;SDS011;61690;51.824;6.306;2023-10-31T09:06:56;5.47;;;2.40;;
73454;SDS011;61690;51.824;6.306;2023-10-31T09:09:21;5.17;;;2.20;;
73454;SDS011;61690;51.824;6.306;2023-10-31T09:11:46;5.27;;;2.40;;
73454;SDS011;61690;51.824;6.306;2023-10-31T09:14:12;5.27;;;2.60;;
73454;SDS011;61690;51.824;6.306;2023-10-31T09:16:37;4.80;;;2.38;;
73454;SDS011;61690;51.824;6.306;2023-10-31T09:19:03;5.67;;;2.77;;
73454;SDS011;61690;51.824;6.306;2023-10-31T09:21:28;5.13;;;2.30;;
73454;SDS011;61690;51.824;6.306;2023-10-31T09:23:53;5.70;;;2.50;;
73454;SDS011;61690;51.824;6.306;2023-10-31T09:26:19;4.87;;;2.30;;
73454;SDS011;61690;51.824;6.306;2023-10-31T09:28:45;5.13;;;2.20;;
73454;SDS011;61690;51.824;6.306;2023-10-31T09:31:16;5.55;;;2.40;;
73454;SDS011;61690;51.824;6.306;2023-10-31T09:33:42;7.00;;;2.47;;
73454;SDS011;61690;51.824;6.306;2023-10-31T09:36:07;5.50;;;2.53;;
73454;SDS011;61690;51.824;6.306;2023-10-31T09:38:33;5.23;;;2.33;;
73454;SDS011;61690;51.824;6.306;2023-10-31T09:40:58;5.03;;;2.47;;
73454;SDS011;61690;51.824;6.306;2023-10-31T09:43:23;5.20;;;2.30;;
73454;SDS011;61690;51.824;6.306;2023-10-31T09:45:49;5.27;;;2.60;;
73454;SDS011;61690;51.824;6.306;2023-10-31T09:48:14;5.97;;;2.70;;
73454;SDS011;61690;51.824;6.306;2023-10-31T09:50:40;5.53;;;2.47;;
73454;SDS011;61690;51.824;6.306;2023-10-31T09:53:06;5.40;;;2.35;;
73454;SDS011;61690;51.824;6.306;2023-10-31T09:55:33;5.67;;;2.50;;
73454;SDS011;61690;51.824;6.306;2023-10-31T09:57:59;5.35;;;2.60;;
73454;SDS011;61690;51.824;6.306;2023-10-31T10:00:25;5.55;;;2.60;;
73454;SDS011;61690;51.824;6.306;2023-10-31T10:02:51;5.73;;;2.50;;
73454;SDS011;61690;51.824;6.306;2023-10-31T10:05:16;5.50;;;2.28;;
73454;SDS011;61690;51.824;6.306;2023-10-31T10:07:43;5.63;;;2.47;;
73454;SDS011;61690;51.824;6.306;2023-10-31T10:10:13;6.43;;;2.78;;
73454;SDS011;61690;51.824;6.306;2023-10-31T10:12:41;6.15;;;2.92;;
73454;SDS011;61690;51.824;6.306;2023-10-31T10:15:09;4.90;;;2.10;;
73454;SDS011;61690;51.824;6.306;2023-10-31T10:17:36;5.35;;;2.58;;
73454;SDS011;61690;51.824;6.306;2023-10-31T10:22:33;5.20;;;2.40;;
73454;SDS011;61690;51.824;6.306;2023-10-31T10:25:01;5.32;;;2.50;;
73454;SDS011;61690;51.824;6.306;2023-10-31T10:27:28;5.63;;;2.78;;
73454;SDS011;61690;51.824;6.306;2023-10-31T10:29:56;5.65;;;2.50;;
73454;SDS011;61690;51.824;6.306;2023-10-31T10:32:21;4.87;;;2.50;;
73454;SDS011;61690;51.824;6.306;2023-10-31T10:34:46;4.93;;;2.33;;
73454;SDS011;61690;51.824;6.306;2023-10-31T10:37:12;5.20;;;2.40;;
73454;SDS011;61690;51.824;6.306;2023-10-31T10:39:37;5.38;;;2.60;;
73454;SDS011;61690;51.824;6.306;2023-10-31T10:42:06;4.75;;;2.20;;
73454;SDS011;61690;51.824;6.306;2023-10-31T10:44:35;5.30;;;2.40;;
73454;SDS011;61690;51.824;6.306;2023-10-31T10:47:04;5.53;;;2.75;;
73454;SDS011;61690;51.824;6.306;2023-10-31T10:49:35;5.15;;;2.15;;
73454;SDS011;61690;51.824;6.306;2023-10-31T10:52:06;5.43;;;2.22;;
73454;SDS011;61690;51.824;6.306;2023-10-31T10:57:26;5.70;;;2.57;;
73454;SDS011;61690;51.824;6.306;2023-10-31T11:00:03;5.13;;;2.45;;
73454;SDS011;61690;51.824;6.306;2023-10-31T11:02:33;4.80;;;2.30;;
73454;SDS011;61690;51.824;6.306;2023-10-31T11:05:02;5.10;;;2.30;;
73454;SDS011;61690;51.824;6.306;2023-10-31T11:07:29;4.90;;;2.20;;
73454;SDS011;61690;51.824;6.306;2023-10-31T11:09:57;5.37;;;2.33;;
73454;SDS011;61690;51.824;6.306;2023-10-31T11:12:26;5.40;;;2.67;;
73454;SDS011;61690;51.824;6.306;2023-10-31T11:14:52;5.57;;;2.35;;
73454;SDS011;61690;51.824;6.306;2023-10-31T11:17:39;5.07;;;2.50;;
73454;SDS011;61690;51.824;6.306;2023-10-31T11:20:04;5.28;;;2.10;;
73454;SDS011;61690;51.824;6.306;2023-10-31T11:22:40;5.55;;;2.20;;
73454;SDS011;61690;51.824;6.306;2023-10-31T11:25:12;4.72;;;2.30;;
73454;SDS011;61690;51.824;6.306;2023-10-31T11:27:38;5.03;;;2.20;;
73454;SDS011;61690;51.824;6.306;2023-10-31T11:30:19;4.77;;;2.13;;
73454;SDS011;61690;51.824;6.306;2023-10-31T11:32:51;5.88;;;2.15;;
73454;SDS011;61690;51.824;6.306;2023-10-31T11:35:17;4.80;;;2.10;;
73454;SDS011;61690;51.824;6.306;2023-10-31T11:37:43;4.85;;;2.30;;
73454;SDS011;61690;51.824;6.306;2023-10-31T11:40:15;5.70;;;2.23;;
73454;SDS011;61690;51.824;6.306;2023-10-31T11:42:40;4.97;;;2.30;;
73454;SDS011;61690;51.824;6.306;2023-10-31T11:45:09;5.10;;;2.53;;
73454;SDS011;61690;51.824;6.306;2023-10-31T11:47:48;5.47;;;2.50;;
73454;SDS011;61690;51.824;6.306;2023-10-31T11:50:14;5.40;;;2.40;;
73454;SDS011;61690;51.824;6.306;2023-10-31T11:52:40;4.80;;;2.30;;
73454;SDS011;61690;51.824;6.306;2023-10-31T11:55:14;4.70;;;2.13;;
73454;SDS011;61690;51.824;6.306;2023-10-31T11:57:40;5.20;;;2.58;;
73454;SDS011;61690;51.824;6.306;2023-10-31T12:00:05;5.43;;;2.00;;
73454;SDS011;61690;51.824;6.306;2023-10-31T12:02:32;5.50;;;2.75;;
73454;SDS011;61690;51.824;6.306;2023-10-31T12:05:11;5.65;;;2.50;;
73454;SDS011;61690;51.824;6.306;2023-10-31T12:07:43;5.77;;;2.70;;
73454;SDS011;61690;51.824;6.306;2023-10-31T12:10:09;5.15;;;2.58;;
73454;SDS011;61690;51.824;6.306;2023-10-31T12:12:35;4.70;;;2.38;;
73454;SDS011;61690;51.824;6.306;2023-10-31T12:15:09;4.80;;;2.13;;
73454;SDS011;61690;51.824;6.306;2023-10-31T12:17:34;5.43;;;2.38;;
73454;SDS011;61690;51.824;6.306;2023-10-31T12:20:04;4.40;;;1.97;;
73454;SDS011;61690;51.824;6.306;2023-10-31T12:22:33;4.65;;;2.20;;
73454;SDS011;61690;51.824;6.306;2023-10-31T12:25:04;5.43;;;2.90;;
73454;SDS011;61690;51.824;6.306;2023-10-31T12:27:47;5.43;;;2.72;;
73454;SDS011;61690;51.824;6.306;2023-10-31T12:30:15;5.22;;;2.55;;
73454;SDS011;61690;51.824;6.306;2023-10-31T12:32:42;4.50;;;2.30;;
73454;SDS011;61690;51.824;6.306;2023-10-31T12:35:12;5.28;;;2.45;;
73454;SDS011;61690;51.824;6.306;2023-10-31T12:37:47;7.55;;;2.75;;
73454;SDS011;61690;51.824;6.306;2023-10-31T12:40:15;4.80;;;2.40;;
73454;SDS011;61690;51.824;6.306;2023-10-31T12:42:43;5.00;;;2.60;;
73454;SDS011;61690;51.824;6.306;2023-10-31T12:45:10;5.13;;;2.30;;
73454;SDS011;61690;51.824;6.306;2023-10-31T12:47:36;6.03;;;2.58;;
73454;SDS011;61690;51.824;6.306;2023-10-31T12:50:06;5.45;;;2.70;;
73454;SDS011;61690;51.824;6.306;2023-10-31T12:55:16;6.33;;;2.73;;
73454;SDS011;61690;51.824;6.306;2023-10-31T12:57:43;6.65;;;2.65;;
73454;SDS011;61690;51.824;6.306;2023-10-31T13:00:09;5.07;;;2.70;;
73454;SDS011;61690;51.824;6.306;2023-10-31T13:02:41;5.68;;;2.50;;
73454;SDS011;61690;51.824;6.306;2023-10-31T13:05:10;5.83;;;2.67;;
73454;SDS011;61690;51.824;6.306;2023-10-31T13:07:37;5.97;;;2.60;;
73454;SDS011;61690;51.824;6.306;2023-10-31T13:10:04;5.18;;;2.55;;
73454;SDS011;61690;51.824;6.306;2023-10-31T13:12:30;5.53;;;2.53;;
73454;SDS011;61690;51.824;6.306;2023-10-31T13:14:55;5.43;;;2.57;;
73454;SDS011;61690;51.824;6.306;2023-10-31T13:17:21;5.07;;;2.60;;
73454;SDS011;61690;51.824;6.306;2023-10-31T13:19:46;6.03;;;2.70;;
73454;SDS011;61690;51.824;6.306;2023-10-31T13:22:11;5.67;;;2.80;;
73454;SDS011;61690;51.824;6.306;2023-10-31T13:24:37;5.50;;;2.60;;
73454;SDS011;61690;51.824;6.306;2023-10-31T13:27:02;5.27;;;2.70;;
73454;SDS011;61690;51.824;6.306;2023-10-31T13:29:28;5.13;;;2.72;;
73454;SDS011;61690;51.824;6.306;2023-10-31T13:31:54;6.30;;;2.80;;
73454;SDS011;61690;51.824;6.306;2023-10-31T13:34:20;4.80;;;2.50;;
73454;SDS011;61690;51.824;6.306;2023-10-31T13:36:46;5.00;;;2.58;;
73454;SDS011;61690;51.824;6.306;2023-10-31T13:39:11;5.93;;;2.90;;
73454;SDS011;61690;51.824;6.306;2023-10-31T13:41:36;6.63;;;2.87;;
73454;SDS011;61690;51.824;6.306;2023-10-31T13:44:02;5.75;;;2.50;;
73454;SDS011;61690;51.824;6.306;2023-10-31T13:46:30;6.37;;;3.10;;
73454;SDS011;61690;51.824;6.306;2023-10-31T13:48:55;4.90;;;2.45;;
73454;SDS011;61690;51.824;6.306;2023-10-31T13:51:21;5.57;;;3.13;;
73454;SDS011;61690;51.824;6.306;2023-10-31T13:53:46;6.57;;;2.50;;
73454;SDS011;61690;51.824;6.306;2023-10-31T13:56:11;6.43;;;2.60;;
73454;SDS011;61690;51.824;6.306;2023-10-31T13:58:36;5.93;;;2.37;;
73454;SDS011;61690;51.824;6.306;2023-10-31T14:01:02;7.47;;;2.60;;
73454;SDS011;61690;51.824;6.306;2023-10-31T14:03:27;5.33;;;2.40;;
73454;SDS011;61690;51.824;6.306;2023-10-31T14:05:53;5.83;;;2.30;;
73454;SDS011;61690;51.824;6.306;2023-10-31T14:08:20;6.23;;;2.70;;
73454;SDS011;61690;51.824;6.306;2023-10-31T14:10:45;6.07;;;2.70;;
73454;SDS011;61690;51.824;6.306;2023-10-31T14:13:11;6.00;;;2.58;;
73454;SDS011;61690;51.824;6.306;2023-10-31T14:15:37;5.60;;;2.70;;
73454;SDS011;61690;51.824;6.306;2023-10-31T14:18:02;5.65;;;2.70;;
73454;SDS011;61690;51.824;6.306;2023-10-31T14:20:28;6.43;;;2.57;;
73454;SDS011;61690;51.824;6.306;2023-10-31T14:22:54;5.25;;;2.50;;
73454;SDS011;61690;51.824;6.306;2023-10-31T14:25:19;5.20;;;2.57;;
73454;SDS011;61690;51.824;6.306;2023-10-31T14:27:44;7.60;;;2.37;;
73454;SDS011;61690;51.824;6.306;2023-10-31T14:30:10;5.43;;;2.50;;
73454;SDS011;61690;51.824;6.306;2023-10-31T14:32:37;6.00;;;2.58;;
73454;SDS011;61690;51.824;6.306;2023-10-31T14:35:03;6.32;;;2.65;;
73454;SDS011;61690;51.824;6.306;2023-10-31T14:37:29;5.27;;;2.30;;
73454;SDS011;61690;51.824;6.306;2023-10-31T14:39:54;6.67;;;2.30;;
73454;SDS011;61690;51.824;6.306;2023-10-31T14:42:19;6.73;;;2.80;;
73454;SDS011;61690;51.824;6.306;2023-10-31T14:44:45;5.47;;;2.42;;
73454;SDS011;61690;51.824;6.306;2023-10-31T14:47:11;6.27;;;2.73;;
73454;SDS011;61690;51.824;6.306;2023-10-31T14:49:36;5.43;;;2.60;;